Time;durP1;ratioP1;P1;durP2;ratioP2;P2;SDS_P1;SDS_P2;PMS_P1;PMS_P2;Temp;Humidity;BMP_temperature;BMP_pressure;BME280_temperature;BME280_humidity;BME280_pressure;Samples;Min_cycle;Max_cycle;Signal;HPM_P1;HPM_P2
2022/05/29 00:02:03;;;;;;;;;;;;;;;13.56;61.58;96535.88;6250644;28;19921;-67
2022/05/29 00:05:08;;;;;;;;;;;;;;;13.76;60.99;96545.69;6250691;28;19928;-68
2022/05/29 00:08:27;;;;;;;;;;;;;;;13.86;60.55;96543.94;6250669;28;20400;-67
2022/05/29 00:11:28;;;;;;;;;;;;;;;13.98;60.23;96543.88;6250648;28;19927;-67
2022/05/29 00:14:33;;;;;;;;;;;;;;;14.14;59.67;96549.56;6250239;28;19921;-67
2022/05/29 00:17:38;;;;;;;;;;;;;;;14.09;59.69;96549.09;6250363;28;19921;-68
2022/05/29 00:20:46;;;;;;;;;;;;;;;14.09;60.03;96543.81;6250836;28;19921;-67
2022/05/29 00:23:53;;;;;;;;;;;;;;;14.07;60.17;96532.53;6250574;28;19921;-67
2022/05/29 00:26:57;;;;;;;;;;;;;;;14.17;59.95;96553.75;6249570;28;19920;-69
2022/05/29 00:29:58;;;;;;;;;;;;;;;14.11;60.13;96547.19;6250182;28;19928;-68
2022/05/29 00:33:05;;;;;;;;;;;;;;;14.20;59.87;96551.69;6250004;28;19935;-68
2022/05/29 00:36:09;;;;;;;;;;;;;;;14.07;60.34;96538.66;6249362;28;19974;-68
2022/05/29 00:39:13;;;;;;;;;;;;;;;14.05;60.46;96545.06;6249813;28;20027;-67
2022/05/29 00:42:18;;;;;;;;;;;;;;;14.18;60.23;96535.09;6249694;28;19921;-67
2022/05/29 00:45:22;;;;;;;;;;;;;;;14.33;59.75;96536.44;6249661;28;19920;-67
2022/05/29 00:48:25;;;;;;;;;;;;;;;14.40;59.76;96544.69;6249469;28;19927;-67
2022/05/29 00:51:28;;;;;;;;;;;;;;;14.27;60.26;96550.22;6249490;28;20295;-68
2022/05/29 00:54:34;;;;;;;;;;;;;;;14.25;60.50;96533.63;6249472;28;19920;-69
2022/05/29 00:57:41;;;;;;;;;;;;;;;14.40;60.38;96549.16;6249392;28;20296;-67
2022/05/29 01:00:45;;;;;;;;;;;;;;;14.50;60.21;96555.34;6249512;28;19921;-68
2022/05/29 01:03:47;;;;;;;;;;;;;;;14.52;59.91;96548.13;6249351;28;19928;-68
2022/05/29 01:06:49;;;;;;;;;;;;;;;14.64;59.96;96554.19;6248306;28;19944;-67
2022/05/29 01:09:53;;;;;;;;;;;;;;;14.43;60.55;96548.88;6249549;28;19920;-68
2022/05/29 01:12:54;;;;;;;;;;;;;;;14.48;60.83;96552.81;6248920;28;19921;-67
2022/05/29 01:16:09;;;;;;;;;;;;;;;14.59;60.67;96554.59;6249190;28;20384;-67
2022/05/29 01:19:30;;;;;;;;;;;;;;;14.55;61.11;96545.22;6249108;28;19921;-68
2022/05/29 01:22:52;;;;;;;;;;;;;;;14.56;61.16;96552.22;6248919;28;19964;-67
2022/05/29 01:25:57;;;;;;;;;;;;;;;14.63;61.34;96553.34;6248556;28;19920;-67
2022/05/29 01:29:01;;;;;;;;;;;;;;;14.89;60.75;96551.09;6248578;28;20058;-67
2022/05/29 01:32:12;;;;;;;;;;;;;;;14.99;60.74;96551.13;6249008;28;19925;-67
2022/05/29 01:35:22;;;;;;;;;;;;;;;15.24;59.84;96566.53;6248603;28;19927;-67
2022/05/29 01:38:23;;;;;;;;;;;;;;;15.37;59.47;96562.78;6248757;28;19921;-68
2022/05/29 01:41:30;;;;;;;;;;;;;;;15.69;58.48;96560.78;6248444;28;19925;-67
2022/05/29 01:44:46;;;;;;;;;;;;;;;15.76;58.43;96568.16;6248372;28;20366;-68
2022/05/29 01:47:50;;;;;;;;;;;;;;;16.10;57.43;96557.97;6248407;28;19921;-67
2022/05/29 01:51:07;;;;;;;;;;;;;;;16.25;57.04;96561.00;6248109;28;20388;-68
2022/05/29 01:54:17;;;;;;;;;;;;;;;16.57;56.36;96564.16;6248373;28;19975;-68
2022/05/29 01:57:23;;;;;;;;;;;;;;;16.87;55.38;96556.97;6248314;28;20303;-68
2022/05/29 02:00:24;;;;;;;;;;;;;;;17.01;54.96;96564.47;6248225;28;19921;-67
2022/05/29 02:03:31;;;;;;;;;;;;;;;16.93;55.31;96569.66;6248122;28;19921;-67
2022/05/29 02:10:18;;;;;;;;;;;;;;;16.95;55.25;96570.34;6264131;28;20312;-68
2022/05/29 02:13:32;;;;;;;;;;;;;;;16.94;55.45;96574.00;6247666;28;19921;-68
2022/05/29 02:16:54;;;;;;;;;;;;;;;16.85;55.74;96569.56;6247191;28;19927;-68
2022/05/29 02:19:58;;;;;;;;;;;;;;;16.93;55.73;96571.47;6247415;28;19921;-68
2022/05/29 02:23:19;;;;;;;;;;;;;;;16.90;55.83;96577.06;6247468;28;20307;-68
2022/05/29 02:26:25;;;;;;;;;;;;;;;16.96;55.95;96585.31;6247050;28;20431;-68
2022/05/29 02:29:29;;;;;;;;;;;;;;;17.22;55.11;96587.31;6247557;28;19921;-68
2022/05/29 02:32:33;;;;;;;;;;;;;;;17.33;55.05;96596.91;6247277;28;19920;-68
2022/05/29 02:36:19;;;;;;;;;;;;;;;17.49;54.57;96600.59;6247404;28;19921;-68
2022/05/29 02:39:20;;;;;;;;;;;;;;;17.68;53.82;96588.16;6247437;28;20339;-67
2022/05/29 02:42:36;;;;;;;;;;;;;;;17.87;53.40;96600.53;6245734;28;20014;-67
2022/05/29 02:45:46;;;;;;;;;;;;;;;17.98;53.20;96599.47;6246794;28;20526;-69
2022/05/29 02:48:58;;;;;;;;;;;;;;;18.03;53.15;96589.16;6247153;28;19936;-68
2022/05/29 02:52:02;;;;;;;;;;;;;;;18.00;53.23;96592.13;6246944;28;19921;-67
2022/05/29 02:55:03;;;;;;;;;;;;;;;17.81;53.63;96604.63;6246820;28;20322;-69
2022/05/29 02:58:13;;;;;;;;;;;;;;;17.87;53.45;96589.88;6246567;28;19928;-68
2022/05/29 03:01:20;;;;;;;;;;;;;;;17.69;54.00;96603.13;6246578;28;20299;-68
2022/05/29 03:04:31;;;;;;;;;;;;;;;17.78;54.21;96604.94;6246519;28;20371;-68
2022/05/29 03:07:35;;;;;;;;;;;;;;;17.97;53.92;96619.06;6245333;28;19921;-67
2022/05/29 03:10:40;;;;;;;;;;;;;;;18.33;52.33;96646.53;6246471;28;20380;-68
2022/05/29 03:13:47;;;;;;;;;;;;;;;18.57;52.00;96627.22;6246398;28;19921;-68
2022/05/29 03:16:55;;;;;;;;;;;;;;;18.81;51.58;96651.44;6246424;28;19921;-68
2022/05/29 03:19:59;;;;;;;;;;;;;;;19.05;50.69;96616.09;6245477;28;19916;-68
2022/05/29 03:23:32;;;;;;;;;;;;;;;19.24;50.44;96623.00;6246126;28;20296;-67
2022/05/29 03:26:42;;;;;;;;;;;;;;;19.50;49.51;96620.31;6244790;28;19921;-68
2022/05/29 03:29:51;;;;;;;;;;;;;;;19.49;49.79;96639.97;6246062;28;19921;-68
2022/05/29 03:32:54;;;;;;;;;;;;;;;19.76;49.10;96637.25;6246180;28;20290;-67
2022/05/29 03:35:58;;;;;;;;;;;;;;;19.85;48.55;96644.31;6246125;28;19952;-67
2022/05/29 03:39:03;;;;;;;;;;;;;;;20.01;48.89;96638.97;6244986;28;19921;-68
2022/05/29 03:42:05;;;;;;;;;;;;;;;20.17;48.60;96640.84;6246125;28;20006;-68
2022/05/29 03:45:09;;;;;;;;;;;;;;;20.30;48.10;96643.03;6245593;28;20012;-68
2022/05/29 03:48:13;;;;;;;;;;;;;;;20.56;47.25;96654.44;6245836;28;20450;-68
2022/05/29 03:51:17;;;;;;;;;;;;;;;20.60;47.05;96660.28;6245755;28;19925;-67
2022/05/29 03:54:23;;;;;;;;;;;;;;;20.66;46.99;96658.78;6245836;28;19925;-68
2022/05/29 03:57:25;;;;;;;;;;;;;;;20.96;46.14;96660.75;6245575;28;20316;-70
2022/05/29 04:00:28;;;;;;;;;;;;;;;21.07;45.74;96663.06;6245518;28;20307;-67
2022/05/29 04:03:33;;;;;;;;;;;;;;;21.14;45.50;96663.22;6245550;28;19925;-68
2022/05/29 04:06:40;;;;;;;;;;;;;;;21.19;45.38;96665.41;6245689;28;20346;-69
2022/05/29 04:13:03;;;;;;;;;;;;;;;21.52;45.14;96661.66;6245349;28;19921;-67
2022/05/29 04:16:07;;;;;;;;;;;;;;;21.21;46.00;96684.78;6245480;28;19970;-67
2022/05/29 04:19:11;;;;;;;;;;;;;;;21.23;45.36;96672.91;6245686;28;19960;-67
2022/05/29 04:22:17;;;;;;;;;;;;;;;20.98;46.13;96673.97;6245138;28;19927;-67
2022/05/29 04:25:20;;;;;;;;;;;;;;;20.70;46.67;96670.81;6245136;28;19921;-67
2022/05/29 04:28:24;;;;;;;;;;;;;;;20.78;46.76;96662.78;6245304;28;19921;-68
2022/05/29 04:31:28;;;;;;;;;;;;;;;20.93;46.38;96671.78;6249112;28;19921;-68
2022/05/29 04:34:33;;;;;;;;;;;;;;;21.36;45.80;96672.38;6250142;28;19921;-68
2022/05/29 04:37:35;;;;;;;;;;;;;;;21.52;45.39;96671.53;6249769;28;20303;-68
2022/05/29 04:40:37;;;;;;;;;;;;;;;21.92;44.19;96694.59;6249630;28;19921;-69
2022/05/29 04:43:38;;;;;;;;;;;;;;;21.79;44.40;96656.84;6248791;28;19935;-70
2022/05/29 04:46:39;;;;;;;;;;;;;;;21.69;44.70;96680.31;6249639;28;19921;-67
2022/05/29 04:49:40;;;;;;;;;;;;;;;21.93;44.23;96690.91;6249487;28;19920;-68
2022/05/29 04:52:44;;;;;;;;;;;;;;;22.62;42.54;96680.31;6249377;28;20308;-69
2022/05/29 04:55:45;;;;;;;;;;;;;;;22.44;43.04;96686.97;6249561;28;20311;-68
2022/05/29 04:58:49;;;;;;;;;;;;;;;22.71;42.74;96691.81;6249175;28;19928;-68
2022/05/29 05:01:57;;;;;;;;;;;;;;;22.77;42.55;96696.44;6248014;28;19968;-67
2022/05/29 05:05:01;;;;;;;;;;;;;;;22.87;42.61;96698.84;6249252;28;20307;-68
2022/05/29 05:08:03;;;;;;;;;;;;;;;24.33;39.73;96694.75;6247937;28;19921;-67
2022/05/29 05:11:06;;;;;;;;;;;;;;;25.82;37.17;96727.94;6248925;28;20012;-67
2022/05/29 05:14:12;;;;;;;;;;;;;;;26.61;35.38;96711.28;6248378;28;20407;-67
2022/05/29 05:17:14;;;;;;;;;;;;;;;27.77;33.30;96716.28;6247620;28;19928;-68
2022/05/29 05:20:15;;;;;;;;;;;;;;;26.80;34.55;96715.03;6248814;28;20283;-68
2022/05/29 05:23:19;;;;;;;;;;;;;;;26.07;36.25;96730.13;6248754;28;19921;-68
2022/05/29 05:26:21;;;;;;;;;;;;;;;28.27;32.31;96741.94;6248493;28;19936;-67
2022/05/29 05:29:27;;;;;;;;;;;;;;;28.05;32.55;96717.84;6248478;28;19928;-68
2022/05/29 05:32:33;;;;;;;;;;;;;;;28.36;32.72;96735.22;6248470;28;20410;-69
2022/05/29 05:35:38;;;;;;;;;;;;;;;31.11;27.70;96736.75;6246546;28;19927;-68
2022/05/29 05:38:43;;;;;;;;;;;;;;;32.19;26.29;96732.81;6248079;28;20295;-66
2022/05/29 05:41:46;;;;;;;;;;;;;;;34.06;24.16;96742.13;6247224;28;19927;-68
2022/05/29 05:44:48;;;;;;;;;;;;;;;35.09;23.37;96742.25;6248480;28;20419;-68
2022/05/29 05:47:52;;;;;;;;;;;;;;;37.68;21.62;96737.41;6248085;28;19921;-68
2022/05/29 05:50:56;;;;;;;;;;;;;;;39.85;19.86;96737.72;6247937;28;20316;-67
2022/05/29 05:54:01;;;;;;;;;;;;;;;40.64;17.47;96761.41;6248020;28;19917;-69
2022/05/29 05:57:05;;;;;;;;;;;;;;;39.71;17.60;96745.81;6245932;28;19927;-67
2022/05/29 06:00:13;;;;;;;;;;;;;;;39.40;17.74;96747.19;6248130;28;19921;-67
2022/05/29 06:03:16;;;;;;;;;;;;;;;38.89;17.90;96750.28;6247693;28;19920;-67
2022/05/29 06:06:17;;;;;;;;;;;;;;;38.17;18.60;96762.34;6245720;28;19920;-67
2022/05/29 06:09:20;;;;;;;;;;;;;;;37.77;19.32;96727.53;6247416;28;19920;-67
2022/05/29 06:12:26;;;;;;;;;;;;;;;38.96;18.21;96761.78;6247626;28;20392;-68
2022/05/29 06:15:27;;;;;;;;;;;;;;;39.53;17.39;96732.75;6247484;28;20009;-68
2022/05/29 06:18:29;;;;;;;;;;;;;;;39.58;17.58;96746.50;6247328;28;20011;-68
2022/05/29 06:21:32;;;;;;;;;;;;;;;39.98;16.88;96766.53;6247582;28;19920;-68
2022/05/29 06:24:34;;;;;;;;;;;;;;;37.28;19.27;96755.50;6247147;28;19921;-67
2022/05/29 06:27:39;;;;;;;;;;;;;;;37.40;19.67;96742.38;6247299;28;19944;-67
2022/05/29 06:30:43;;;;;;;;;;;;;;;37.46;19.14;96768.72;6245607;28;20438;-67
2022/05/29 06:33:44;;;;;;;;;;;;;;;35.58;21.02;96761.28;6247176;28;19920;-66
2022/05/29 06:36:47;;;;;;;;;;;;;;;35.40;21.37;96764.41;6246656;28;19988;-66
2022/05/29 06:39:54;;;;;;;;;;;;;;;34.68;22.22;96762.84;6247131;28;19925;-66
2022/05/29 06:42:57;;;;;;;;;;;;;;;31.67;25.98;96761.81;6246909;28;20379;-67
2022/05/29 06:45:58;;;;;;;;;;;;;;;31.17;26.32;96768.47;6246385;28;20074;-66
2022/05/29 06:49:00;;;;;;;;;;;;;;;31.38;26.61;96763.56;6245118;28;20489;-68
2022/05/29 06:52:04;;;;;;;;;;;;;;;31.01;26.72;96785.44;6246885;28;19916;-70
2022/05/29 06:55:08;;;;;;;;;;;;;;;30.15;27.57;96755.56;6246930;28;20331;-67
2022/05/29 06:58:11;;;;;;;;;;;;;;;30.59;27.63;96771.75;6246555;28;19917;-68
2022/05/29 07:08:13;;;;;;;;;;;;;;;30.11;28.33;96772.50;6290965;28;20316;-67
2022/05/29 07:11:19;;;;;;;;;;;;;;;32.81;25.20;96777.63;6246051;28;19921;-67
2022/05/29 07:14:23;;;;;;;;;;;;;;;34.40;23.34;96790.09;6245998;28;19921;-67
2022/05/29 07:17:27;;;;;;;;;;;;;;;33.99;23.07;96784.03;6246311;28;19925;-67
2022/05/29 07:20:29;;;;;;;;;;;;;;;35.53;21.42;96786.69;6245965;28;19928;-66
2022/05/29 07:23:30;;;;;;;;;;;;;;;36.49;20.47;96779.41;6246040;28;19921;-68
2022/05/29 07:26:35;;;;;;;;;;;;;;;37.69;18.99;96783.00;6246091;28;20006;-67
2022/05/29 07:29:36;;;;;;;;;;;;;;;38.46;18.44;96813.13;6246428;28;19943;-66
2022/05/29 07:32:42;;;;;;;;;;;;;;;39.22;17.98;96796.28;6246182;28;19925;-66
2022/05/29 07:35:43;;;;;;;;;;;;;;;40.07;17.23;96810.81;6245588;28;19954;-68
2022/05/29 07:38:47;;;;;;;;;;;;;;;40.12;16.82;96810.75;6245368;28;20471;-66
2022/05/29 07:45:12;;;;;;;;;;;;;;;38.41;18.43;96839.53;6245883;28;19928;-67
2022/05/29 07:48:18;;;;;;;;;;;;;;;38.27;18.37;96810.94;6245967;28;20467;-67
2022/05/29 07:51:21;;;;;;;;;;;;;;;38.12;18.74;96820.06;6245817;28;19921;-67
2022/05/29 07:54:27;;;;;;;;;;;;;;;35.54;20.92;96840.34;6245824;28;19925;-67
2022/05/29 07:57:30;;;;;;;;;;;;;;;32.19;24.13;96819.91;6244432;28;19920;-67
2022/05/29 08:00:33;;;;;;;;;;;;;;;30.14;27.22;96815.47;6245922;28;19959;-68
2022/05/29 08:03:37;;;;;;;;;;;;;;;29.62;28.27;96833.88;6245483;28;20502;-67
2022/05/29 08:06:41;;;;;;;;;;;;;;;30.82;26.92;96837.06;6249656;28;19921;-67
2022/05/29 08:09:45;;;;;;;;;;;;;;;33.15;24.27;96832.25;6250352;28;19921;-67
2022/05/29 08:12:52;;;;;;;;;;;;;;;34.90;22.31;96842.09;6250152;28;19921;-66
2022/05/29 08:15:53;;;;;;;;;;;;;;;33.56;23.84;96843.94;6250442;28;20299;-68
2022/05/29 08:18:54;;;;;;;;;;;;;;;32.44;25.04;96832.41;6249774;28;19921;-68
2022/05/29 08:21:58;;;;;;;;;;;;;;;32.51;25.30;96827.72;6249815;28;20015;-67
2022/05/29 08:32:03;;;;;;;;;;;;;;;31.83;25.76;96839.19;6295699;28;19974;-67
2022/05/29 08:35:06;;;;;;;;;;;;;;;30.79;27.41;96859.28;6296245;28;19958;-67
2022/05/29 08:38:11;;;;;;;;;;;;;;;30.16;28.20;96848.66;6250046;28;19925;-67
2022/05/29 08:41:13;;;;;;;;;;;;;;;30.66;27.53;96843.13;6249938;28;20406;-67
2022/05/29 08:44:49;;;;;;;;;;;;;;;33.41;24.35;96834.38;6249321;28;20419;-67
2022/05/29 08:47:50;;;;;;;;;;;;;;;35.93;21.98;96867.53;6246997;28;19921;-67
2022/05/29 08:50:58;;;;;;;;;;;;;;;37.50;20.53;96860.41;6249155;28;19921;-66
2022/05/29 08:54:10;;;;;;;;;;;;;;;38.21;19.60;96879.94;6249527;28;19921;-67
2022/05/29 08:57:30;;;;;;;;;;;;;;;38.78;19.03;96882.31;6249135;28;19920;-67
2022/05/29 09:01:04;;;;;;;;;;;;;;;38.63;18.86;96885.94;6248984;28;19921;-67
2022/05/29 09:04:31;;;;;;;;;;;;;;;37.92;19.74;96903.28;6248139;28;19921;-67
2022/05/29 09:07:36;;;;;;;;;;;;;;;37.96;18.89;96887.94;6248539;28;20399;-68
2022/05/29 09:10:43;;;;;;;;;;;;;;;37.86;19.05;96892.56;6248736;28;20027;-68
2022/05/29 09:13:48;;;;;;;;;;;;;;;37.55;19.78;96894.47;6248688;28;19921;-67
2022/05/29 09:16:57;;;;;;;;;;;;;;;37.74;19.53;96885.44;6247456;28;19955;-67
2022/05/29 09:20:03;;;;;;;;;;;;;;;38.75;18.50;96893.88;6248888;28;19921;-67
2022/05/29 09:23:08;;;;;;;;;;;;;;;37.58;19.21;96894.75;6248856;28;19920;-67
2022/05/29 09:26:14;;;;;;;;;;;;;;;35.27;21.45;96914.22;6248623;28;19920;-67
2022/05/29 09:29:20;;;;;;;;;;;;;;;34.40;22.84;96887.63;6248718;28;19929;-67
2022/05/29 09:32:22;;;;;;;;;;;;;;;35.33;21.50;96917.00;6248652;28;19951;-67
2022/05/29 09:35:26;;;;;;;;;;;;;;;34.85;22.30;96881.97;6247874;28;19927;-67
2022/05/29 09:38:34;;;;;;;;;;;;;;;33.49;23.63;96874.91;6248554;28;19921;-67
2022/05/29 09:41:44;;;;;;;;;;;;;;;32.91;24.15;96878.66;6248463;28;19921;-67
2022/05/29 09:45:04;;;;;;;;;;;;;;;33.65;23.62;96877.91;6248106;28;19921;-67
2022/05/29 09:51:49;;;;;;;;;;;;;;;35.02;21.58;96902.94;6248226;28;19925;-67
2022/05/29 09:54:52;;;;;;;;;;;;;;;35.12;21.67;96885.84;6248114;28;19999;-67
2022/05/29 09:57:59;;;;;;;;;;;;;;;35.03;22.00;96890.94;6248276;28;19928;-67
2022/05/29 10:01:03;;;;;;;;;;;;;;;33.40;23.37;96900.91;6246551;28;20300;-66
2022/05/29 10:04:30;;;;;;;;;;;;;;;31.82;25.55;96878.31;6247732;28;19925;-68
2022/05/29 10:07:42;;;;;;;;;;;;;;;32.05;25.15;96893.91;6246365;28;20000;-68
2022/05/29 10:10:43;;;;;;;;;;;;;;;32.53;24.52;96888.22;6246286;28;20038;-67
2022/05/29 10:13:44;;;;;;;;;;;;;;;33.33;23.82;96911.16;6247428;28;19921;-67
2022/05/29 10:16:53;;;;;;;;;;;;;;;34.51;22.70;96900.34;6247713;28;20252;-67
2022/05/29 10:19:54;;;;;;;;;;;;;;;35.18;21.64;96921.22;6247598;28;19921;-66
2022/05/29 10:22:58;;;;;;;;;;;;;;;34.40;22.01;96915.75;6247268;28;19921;-66
2022/05/29 10:26:04;;;;;;;;;;;;;;;34.09;22.75;96897.25;6247239;28;19921;-67
2022/05/29 10:29:24;;;;;;;;;;;;;;;34.07;22.83;96916.59;6246898;28;19921;-67
2022/05/29 10:32:30;;;;;;;;;;;;;;;34.12;22.23;96919.41;6247299;28;20007;-67
2022/05/29 10:35:33;;;;;;;;;;;;;;;33.56;22.46;96904.78;6246995;28;19928;-68
2022/05/29 10:38:34;;;;;;;;;;;;;;;32.85;23.69;96920.50;6246692;28;19921;-67
2022/05/29 10:41:37;;;;;;;;;;;;;;;32.76;23.66;96911.88;6246754;28;19944;-67
2022/05/29 10:44:44;;;;;;;;;;;;;;;32.35;24.20;96910.09;6246902;28;20015;-68
2022/05/29 10:47:53;;;;;;;;;;;;;;;32.20;24.07;96880.63;6246581;28;19920;-67
2022/05/29 10:51:13;;;;;;;;;;;;;;;32.08;24.13;96896.97;6246550;28;20011;-67
2022/05/29 10:54:26;;;;;;;;;;;;;;;31.78;24.72;96910.59;6246231;28;19970;-66
2022/05/29 10:57:46;;;;;;;;;;;;;;;31.39;25.58;96904.69;6246368;28;19939;-67
2022/05/29 11:00:59;;;;;;;;;;;;;;;31.42;25.63;96914.28;6246982;28;20312;-67
2022/05/29 11:04:11;;;;;;;;;;;;;;;31.20;25.53;96897.66;6246458;28;19929;-67
2022/05/29 11:07:27;;;;;;;;;;;;;;;31.25;25.41;96901.34;6246426;28;20310;-67
2022/05/29 11:10:39;;;;;;;;;;;;;;;31.32;25.04;96917.53;6246257;28;19921;-67
2022/05/29 11:13:43;;;;;;;;;;;;;;;30.69;25.52;96902.41;6246471;28;19920;-67
2022/05/29 11:17:22;;;;;;;;;;;;;;;30.55;25.43;96900.91;6245844;28;19927;-68
2022/05/29 11:20:44;;;;;;;;;;;;;;;30.03;26.07;96909.28;6243460;28;19925;-67
2022/05/29 11:23:55;;;;;;;;;;;;;;;30.02;26.97;96866.13;6226746;28;19971;-68
2022/05/29 11:27:17;;;;;;;;;;;;;;;29.77;27.44;96903.03;6245780;28;19920;-67
2022/05/29 11:30:19;;;;;;;;;;;;;;;30.02;27.75;96906.81;6245543;28;20293;-68
2022/05/29 11:33:26;;;;;;;;;;;;;;;29.95;27.05;96891.44;6246146;28;20114;-67
2022/05/29 11:36:35;;;;;;;;;;;;;;;29.54;26.77;96898.16;6245972;28;19917;-67
2022/05/29 11:39:59;;;;;;;;;;;;;;;29.52;27.18;96889.41;6243973;28;20012;-67
2022/05/29 11:43:24;;;;;;;;;;;;;;;29.57;27.25;96893.38;6244431;28;19939;-68
2022/05/29 11:53:19;;;;;;;;;;;;;;;29.42;27.63;96901.81;6245064;28;20008;-67
2022/05/29 11:56:32;;;;;;;;;;;;;;;29.52;27.57;96902.97;6245388;28;20006;-68
2022/05/29 11:59:47;;;;;;;;;;;;;;;29.01;27.83;96884.88;6245080;28;20026;-68
2022/05/29 12:03:09;;;;;;;;;;;;;;;29.29;27.79;96894.56;6245629;28;20285;-68
2022/05/29 12:06:22;;;;;;;;;;;;;;;29.82;27.17;96891.53;6244803;28;19920;-67
2022/05/29 12:09:49;;;;;;;;;;;;;;;29.73;27.20;96901.00;6245427;28;20418;-68
2022/05/29 12:13:05;;;;;;;;;;;;;;;29.64;27.25;96899.59;6245173;28;20407;-67
2022/05/29 12:16:08;;;;;;;;;;;;;;;29.15;27.87;96912.78;6245419;28;20316;-67
2022/05/29 12:19:17;;;;;;;;;;;;;;;29.14;27.99;96907.59;6245437;28;19928;-67
2022/05/29 12:22:26;;;;;;;;;;;;;;;29.15;27.53;96911.97;6245509;28;19921;-66
2022/05/29 12:25:27;;;;;;;;;;;;;;;28.86;27.66;96893.28;6245835;28;19960;-67
2022/05/29 12:28:41;;;;;;;;;;;;;;;28.46;28.20;96898.03;6243821;28;19925;-68
2022/05/29 12:31:44;;;;;;;;;;;;;;;28.44;28.50;96921.75;6245077;28;19921;-67
2022/05/29 12:34:59;;;;;;;;;;;;;;;28.33;28.05;96881.78;6245623;28;19916;-68
2022/05/29 12:38:07;;;;;;;;;;;;;;;27.79;28.64;96901.78;6244799;28;20304;-67
2022/05/29 12:41:11;;;;;;;;;;;;;;;27.57;29.36;96899.25;6245643;28;20011;-67
2022/05/29 12:44:39;;;;;;;;;;;;;;;27.32;29.82;96907.13;6245095;28;19921;-68
2022/05/29 12:48:06;;;;;;;;;;;;;;;27.03;30.38;96879.34;6244763;28;20304;-66
2022/05/29 12:51:12;;;;;;;;;;;;;;;26.84;30.76;96883.69;6245030;28;19925;-67
2022/05/29 12:54:16;;;;;;;;;;;;;;;26.88;31.43;96895.72;6249488;28;19929;-67
2022/05/29 12:57:40;;;;;;;;;;;;;;;26.54;31.51;96909.28;6249387;28;19925;-67
2022/05/29 13:00:43;;;;;;;;;;;;;;;26.31;31.62;96883.38;6249351;28;20399;-68
2022/05/29 13:04:04;;;;;;;;;;;;;;;26.19;32.08;96876.88;6249394;28;19928;-67
2022/05/29 13:07:19;;;;;;;;;;;;;;;26.05;32.11;96872.44;6248180;28;19921;-68
2022/05/29 13:10:25;;;;;;;;;;;;;;;25.66;32.57;96885.38;6248943;28;19927;-67
2022/05/29 13:13:38;;;;;;;;;;;;;;;25.98;32.61;96862.41;6248994;28;19928;-68
2022/05/29 13:16:45;;;;;;;;;;;;;;;25.53;33.32;96875.31;6248937;28;19922;-67
2022/05/29 13:19:51;;;;;;;;;;;;;;;25.69;33.23;96884.97;6248960;28;19921;-67
2022/05/29 13:23:06;;;;;;;;;;;;;;;25.73;33.25;96886.28;6248967;28;19920;-67
2022/05/29 13:26:12;;;;;;;;;;;;;;;25.57;32.99;96862.28;6248678;28;19921;-68
2022/05/29 13:29:35;;;;;;;;;;;;;;;25.86;33.38;96890.94;6248322;28;19920;-68
2022/05/29 13:32:41;;;;;;;;;;;;;;;26.08;32.94;96888.22;6248424;28;19991;-66
2022/05/29 13:35:44;;;;;;;;;;;;;;;25.47;33.42;96897.63;6248510;28;19921;-67
2022/05/29 13:38:50;;;;;;;;;;;;;;;25.29;34.08;96884.59;6248413;28;19921;-67
2022/05/29 13:42:02;;;;;;;;;;;;;;;25.18;34.32;96897.75;6248454;28;20015;-68
2022/05/29 13:45:23;;;;;;;;;;;;;;;24.99;34.59;96894.59;6248227;28;20334;-67
2022/05/29 13:48:25;;;;;;;;;;;;;;;24.87;35.00;96902.34;6248318;28;19936;-68
2022/05/29 13:51:35;;;;;;;;;;;;;;;25.01;35.24;96919.47;6248150;28;19920;-68
2022/05/29 13:54:38;;;;;;;;;;;;;;;24.89;35.69;96904.03;6248025;28;20015;-67
2022/05/29 14:04:51;;;;;;;;;;;;;;;24.63;35.73;96906.19;6247128;28;19979;-67
2022/05/29 14:08:11;;;;;;;;;;;;;;;24.34;36.37;96900.78;6247718;28;20308;-67
2022/05/29 14:11:13;;;;;;;;;;;;;;;24.15;36.58;96910.25;6247689;28;20316;-66
2022/05/29 14:14:37;;;;;;;;;;;;;;;24.17;36.94;96924.31;6247145;28;19921;-68
2022/05/29 14:17:41;;;;;;;;;;;;;;;24.54;36.12;96918.06;6247348;28;19975;-67
2022/05/29 14:20:57;;;;;;;;;;;;;;;24.92;35.86;96931.38;6247215;28;19925;-67
2022/05/29 14:24:17;;;;;;;;;;;;;;;24.82;35.97;96928.16;6247111;28;19925;-68
2022/05/29 14:27:29;;;;;;;;;;;;;;;24.59;36.09;96923.72;6246721;28;19924;-67
2022/05/29 14:30:41;;;;;;;;;;;;;;;24.86;35.53;96937.53;6247068;28;19944;-67
2022/05/29 14:33:58;;;;;;;;;;;;;;;24.97;35.18;96942.44;6246722;28;19921;-68
2022/05/29 14:37:06;;;;;;;;;;;;;;;24.90;35.15;96933.44;6246908;28;19921;-67
2022/05/29 14:40:22;;;;;;;;;;;;;;;24.49;35.74;96930.41;6246990;28;19916;-67
2022/05/29 14:43:25;;;;;;;;;;;;;;;24.16;35.95;96926.16;6246563;28;19932;-67
2022/05/29 14:46:36;;;;;;;;;;;;;;;24.02;36.48;96927.00;6246767;28;20388;-67
2022/05/29 14:49:57;;;;;;;;;;;;;;;23.86;37.14;96929.81;6246582;28;19927;-68
2022/05/29 14:53:10;;;;;;;;;;;;;;;23.87;37.71;96932.34;6246679;28;19921;-67
2022/05/29 14:56:12;;;;;;;;;;;;;;;23.64;38.04;96936.88;6246592;28;19936;-67
2022/05/29 14:59:19;;;;;;;;;;;;;;;23.61;38.42;96932.69;6246407;28;20510;-66
2022/05/29 15:02:23;;;;;;;;;;;;;;;23.46;39.03;96953.28;6244946;28;19925;-67
2022/05/29 15:05:25;;;;;;;;;;;;;;;23.11;39.49;96943.94;6246230;28;19927;-68
2022/05/29 15:11:56;;;;;;;;;;;;;;;22.96;39.65;96944.69;6246369;28;20400;-67
2022/05/29 15:15:17;;;;;;;;;;;;;;;22.82;39.68;96948.09;6246382;28;19960;-68
2022/05/29 15:18:23;;;;;;;;;;;;;;;22.68;40.19;96951.50;6246162;28;19921;-68
2022/05/29 15:24:49;;;;;;;;;;;;;;;22.37;40.75;96952.25;6245746;28;19928;-67
2022/05/29 15:27:56;;;;;;;;;;;;;;;22.27;41.05;96956.94;6245951;28;19921;-68
2022/05/29 15:30:59;;;;;;;;;;;;;;;22.24;41.02;96966.16;6246275;28;20300;-68
2022/05/29 15:34:15;;;;;;;;;;;;;;;22.08;41.30;96979.56;6245972;28;19923;-67
2022/05/29 15:37:25;;;;;;;;;;;;;;;21.97;41.65;96970.03;6245897;28;19921;-68
2022/05/29 15:40:41;;;;;;;;;;;;;;;21.63;42.25;96972.88;6245605;28;19923;-68
2022/05/29 15:43:53;;;;;;;;;;;;;;;21.39;42.96;96971.00;6245804;28;19921;-68
2022/05/29 15:47:17;;;;;;;;;;;;;;;21.50;43.09;96978.72;6245597;28;19921;-68
2022/05/29 15:50:22;;;;;;;;;;;;;;;21.50;43.40;96978.72;6245589;28;19950;-68
2022/05/29 15:53:31;;;;;;;;;;;;;;;21.35;43.97;96975.81;6244444;28;19932;-67
2022/05/29 15:56:54;;;;;;;;;;;;;;;21.17;44.15;96983.97;6245562;28;19920;-68
2022/05/29 16:00:13;;;;;;;;;;;;;;;21.01;44.69;96994.63;6245460;28;20002;-67
2022/05/29 16:03:27;;;;;;;;;;;;;;;20.81;44.98;96994.88;6245168;28;19921;-68
2022/05/29 16:06:42;;;;;;;;;;;;;;;20.99;45.08;97004.66;6245500;28;19921;-66
2022/05/29 16:09:47;;;;;;;;;;;;;;;20.76;45.34;97007.06;6245591;28;20379;-67
2022/05/29 16:12:49;;;;;;;;;;;;;;;20.61;46.00;97009.50;6245205;28;20026;-67
2022/05/29 16:16:00;;;;;;;;;;;;;;;20.74;45.76;97011.72;6245147;28;19921;-67
2022/05/29 16:19:08;;;;;;;;;;;;;;;20.61;46.07;97022.88;6245468;28;19917;-68
2022/05/29 16:22:28;;;;;;;;;;;;;;;20.42;46.54;97026.56;6244404;28;19921;-68
2022/05/29 16:25:40;;;;;;;;;;;;;;;20.32;47.08;97031.16;6245928;28;19920;-68
2022/05/29 16:28:56;;;;;;;;;;;;;;;20.28;47.32;97032.47;6249849;28;20012;-68
2022/05/29 16:32:03;;;;;;;;;;;;;;;20.24;47.05;97039.09;6249886;28;19921;-67
2022/05/29 16:35:26;;;;;;;;;;;;;;;20.22;47.03;97046.47;6232537;28;19944;-68
2022/05/29 16:48:47;;;;;;;;;;;;;;;19.62;48.19;97050.59;6249362;28;19921;-68
2022/05/29 16:51:56;;;;;;;;;;;;;;;19.73;48.64;97053.06;6249628;28;19921;-68
2022/05/29 16:55:01;;;;;;;;;;;;;;;19.57;48.97;97052.84;6250116;28;20406;-68
2022/05/29 16:58:04;;;;;;;;;;;;;;;19.65;48.71;97055.66;6249861;28;19921;-68
2022/05/29 17:01:12;;;;;;;;;;;;;;;19.56;49.08;97053.84;6249626;28;19921;-68
2022/05/29 17:04:31;;;;;;;;;;;;;;;19.38;49.38;97050.31;6249659;28;19921;-68
2022/05/29 17:07:44;;;;;;;;;;;;;;;19.25;49.66;97058.69;6249141;28;19921;-68
2022/05/29 17:10:52;;;;;;;;;;;;;;;19.05;50.13;97056.13;6249036;28;19921;-68
2022/05/29 17:13:54;;;;;;;;;;;;;;;19.12;50.26;97053.69;6249116;28;19921;-69
2022/05/29 17:16:57;;;;;;;;;;;;;;;19.00;50.65;97053.06;6249150;28;19921;-68
2022/05/29 17:19:58;;;;;;;;;;;;;;;19.00;50.80;97044.22;6248884;28;19921;-69